Time;durP1;ratioP1;P1;durP2;ratioP2;P2;SDS_P1;SDS_P2;PMS_P1;PMS_P2;Temp;Humidity;BMP_temperature;BMP_pressure;BME280_temperature;BME280_humidity;BME280_pressure;Samples;Min_cycle;Max_cycle;Signal;HPM_P1;HPM_P2
2021/05/11 00:02:26;;;;;;;9.80;7.13;;;;;;;-139.48;100.00;61774.03;4974312;28;20048;-70
2021/05/11 00:05:10;;;;;;;12.38;8.52;;;;;;;-139.48;100.00;61774.03;4973230;28;20094;-70
2021/05/11 00:07:55;;;;;;;12.90;7.72;;;;;;;-139.48;100.00;61774.03;4973311;28;20117;-70
2021/05/11 00:10:40;;;;;;;9.20;6.65;;;;;;;-139.48;100.00;61774.03;4973081;28;20053;-69
2021/05/11 00:13:24;;;;;;;10.07;5.82;;;;;;;-139.48;100.00;61774.03;4972909;28;20085;-69
2021/05/11 00:16:07;;;;;;;11.63;6.38;;;;;;;-139.48;100.00;61774.03;4973206;28;20046;-69
2021/05/11 00:18:52;;;;;;;8.63;5.60;;;;;;;-139.48;100.00;61774.03;4974127;28;20057;-69
2021/05/11 00:21:36;;;;;;;8.75;6.38;;;;;;;-139.48;100.00;61774.03;4973053;28;20050;-69
2021/05/11 00:24:20;;;;;;;10.57;6.65;;;;;;;-139.48;100.00;61774.03;4974039;28;20121;-69
2021/05/11 00:27:05;;;;;;;9.88;6.57;;;;;;;-139.48;100.00;61774.03;4973110;28;20146;-69
2021/05/11 00:29:49;;;;;;;9.50;6.30;;;;;;;-139.48;100.00;61774.03;4973911;28;20049;-67
2021/05/11 00:32:33;;;;;;;9.90;6.65;;;;;;;-139.48;100.00;61774.03;4973810;28;20420;-69
2021/05/11 00:35:17;;;;;;;7.63;5.50;;;;;;;-139.48;100.00;61774.03;4972550;28;20054;-68
2021/05/11 00:38:01;;;;;;;;;;;;;;;-139.48;100.00;61774.03;4973317;28;20104;-69
2021/05/11 00:40:45;;;;;;;8.90;6.07;;;;;;;-139.48;100.00;61774.03;4972668;28;19968;-70
2021/05/11 00:43:29;;;;;;;8.60;5.85;;;;;;;-139.48;100.00;61774.03;4972795;28;20439;-70
2021/05/11 00:46:14;;;;;;;8.93;6.35;;;;;;;-139.48;100.00;61774.03;4959112;28;20494;-70
2021/05/11 00:48:58;;;;;;;9.57;6.25;;;;;;;-139.48;100.00;61774.03;4974013;28;20085;-69
2021/05/11 00:51:42;;;;;;;8.52;6.25;;;;;;;-139.48;100.00;61774.03;4973542;28;20129;-69
2021/05/11 00:54:26;;;;;;;10.98;6.80;;;;;;;-139.48;100.00;61774.03;4972488;28;20046;-69
2021/05/11 00:57:11;;;;;;;11.27;7.00;;;;;;;-139.48;100.00;61774.03;4973755;28;20065;-70
2021/05/11 00:59:55;;;;;;;13.02;8.02;;;;;;;-139.48;100.00;61774.03;4972627;28;20070;-69
2021/05/11 01:02:39;;;;;;;12.25;7.60;;;;;;;-139.48;100.00;61774.03;4972598;28;20094;-69
2021/05/11 01:05:26;;;;;;;11.27;7.72;;;;;;;-139.48;100.00;61774.03;4972223;28;20057;-69
2021/05/11 01:08:10;;;;;;;9.80;6.70;;;;;;;-139.48;100.00;61774.03;4973848;28;20193;-68
2021/05/11 01:10:54;;;;;;;14.30;9.40;;;;;;;-139.48;100.00;61774.03;4958938;28;20061;-67
2021/05/11 01:13:38;;;;;;;12.80;8.68;;;;;;;-139.48;100.00;61774.03;4972529;28;20041;-69
2021/05/11 01:16:25;;;;;;;13.40;8.30;;;;;;;-139.48;100.00;61774.03;4958685;28;20427;-70
2021/05/11 01:24:46;;;;;;;9.52;6.30;;;;;;;-139.48;100.00;61774.03;4972509;28;20479;-71
2021/05/11 01:30:55;;;;;;;11.95;8.65;;;;;;;-139.48;100.00;61774.03;4972560;28;20097;-70
2021/05/11 01:49:19;;;;;;;9.38;7.05;;;;;;;-139.48;100.00;61774.03;4976137;28;20061;-70
2021/05/11 02:25:15;;;;;;;10.25;7.80;;;;;;;-139.48;100.00;61774.03;4974773;28;20093;-70
2021/05/11 02:27:59;;;;;;;11.60;8.45;;;;;;;-139.48;100.00;61774.03;4961355;28;20368;-70
2021/05/11 02:30:43;;;;;;;10.98;7.78;;;;;;;-139.48;100.00;61774.03;4974813;28;20442;-70
2021/05/11 02:33:27;;;;;;;15.18;7.82;;;;;;;-139.48;100.00;61774.03;4975782;28;20105;-70
2021/05/11 02:36:11;;;;;;;12.10;7.97;;;;;;;-139.48;100.00;61774.03;4974659;28;20058;-70
2021/05/11 02:38:58;;;;;;;11.00;7.00;;;;;;;-139.48;100.00;61774.03;4974522;28;20077;-70
2021/05/11 02:41:44;;;;;;;9.95;6.72;;;;;;;-139.48;100.00;61774.03;4961418;28;20109;-70
2021/05/11 02:44:29;;;;;;;9.75;6.97;;;;;;;-139.48;100.00;61774.03;4974412;28;20038;-70
2021/05/11 02:47:13;;;;;;;11.35;6.90;;;;;;;-139.48;100.00;61774.03;4974300;28;20098;-70
2021/05/11 02:50:03;;;;;;;;;;;;;;;-139.48;100.00;61774.03;4974661;28;20069;-70
2021/05/11 02:52:48;;;;;;;9.52;7.20;;;;;;;-139.48;100.00;61774.03;4973826;28;19964;-69
2021/05/11 02:55:32;;;;;;;8.20;6.65;;;;;;;-139.48;100.00;61774.03;4974528;28;20052;-70
2021/05/11 02:58:16;;;;;;;9.73;6.88;;;;;;;-139.48;100.00;61774.03;4975099;28;20524;-70
2021/05/11 03:01:00;;;;;;;9.32;6.55;;;;;;;-139.48;100.00;61774.03;4960569;28;20105;-68
2021/05/11 03:03:43;;;;;;;13.93;7.95;;;;;;;-139.48;100.00;61774.03;4974811;28;20045;-70
2021/05/11 03:06:27;;;;;;;9.45;6.85;;;;;;;-139.48;100.00;61774.03;4974404;28;20404;-70
2021/05/11 03:09:12;;;;;;;9.40;6.38;;;;;;;-139.48;100.00;61774.03;4974154;28;20185;-70
2021/05/11 03:11:56;;;;;;;9.55;6.68;;;;;;;-139.48;100.00;61774.03;4974193;28;20049;-70
2021/05/11 03:14:40;;;;;;;9.00;7.07;;;;;;;-139.48;100.00;61774.03;4973696;28;20105;-67
2021/05/11 03:17:24;;;;;;;9.55;6.68;;;;;;;-139.48;100.00;61774.03;4974387;28;20561;-70
2021/05/11 03:20:09;;;;;;;10.40;6.47;;;;;;;-139.48;100.00;61774.03;4974102;28;20098;-70
2021/05/11 03:22:56;;;;;;;7.90;6.40;;;;;;;-139.48;100.00;61774.03;4973997;28;20049;-70
2021/05/11 03:25:40;;;;;;;10.05;6.82;;;;;;;-139.48;100.00;61774.03;4973995;28;20053;-70
2021/05/11 03:28:24;;;;;;;;;;;;;;;-139.48;100.00;61774.03;4974423;28;20049;-70
2021/05/11 03:31:08;;;;;;;7.63;5.70;;;;;;;-139.48;100.00;61774.03;4973662;28;19921;-70
2021/05/11 03:33:52;;;;;;;7.07;5.18;;;;;;;-139.48;100.00;61774.03;4974804;28;20053;-70
2021/05/11 03:36:36;;;;;;;7.03;5.30;;;;;;;-139.48;100.00;61774.03;4974080;28;20456;-68
2021/05/11 03:39:20;;;;;;;8.75;6.22;;;;;;;-139.48;100.00;61774.03;4973737;28;20097;-70
2021/05/11 03:42:19;;;;;;;6.60;5.20;;;;;;;-139.48;100.00;61774.03;4973383;28;20045;-70
2021/05/11 03:45:05;;;;;;;6.53;5.40;;;;;;;-139.48;100.00;61774.03;4961442;28;20263;-70
2021/05/11 03:47:52;;;;;;;8.43;6.60;;;;;;;-139.48;100.00;61774.03;4974417;28;20058;-70
2021/05/11 03:50:36;;;;;;;8.98;6.00;;;;;;;-139.48;100.00;61774.03;4974331;28;20608;-70
2021/05/11 03:53:20;;;;;;;8.23;5.95;;;;;;;-139.48;100.00;61774.03;4959890;28;20433;-70
2021/05/11 03:56:04;;;;;;;8.65;6.68;;;;;;;-139.48;100.00;61774.03;4959856;28;20133;-70
2021/05/11 03:58:48;;;;;;;8.25;6.25;;;;;;;-139.48;100.00;61774.03;4974380;28;20057;-70
2021/05/11 04:01:33;;;;;;;7.43;5.78;;;;;;;-139.48;100.00;61774.03;4959785;28;20054;-70
2021/05/11 04:04:16;;;;;;;8.85;6.10;;;;;;;-139.48;100.00;61774.03;4973541;28;20046;-70
2021/05/11 04:07:00;;;;;;;9.35;5.75;;;;;;;-139.48;100.00;61774.03;4959671;28;20073;-68
2021/05/11 04:09:52;;;;;;;6.57;5.03;;;;;;;-139.48;100.00;61774.03;4974374;28;20495;-70
2021/05/11 04:12:51;;;;;;;6.47;5.07;;;;;;;-139.48;100.00;61774.03;4973459;28;20073;-69
2021/05/11 04:18:38;;;;;;;10.65;5.82;;;;;;;-139.48;100.00;61774.03;4974169;28;20049;-70
2021/05/11 04:21:23;;;;;;;8.77;6.00;;;;;;;-139.48;100.00;61774.03;4973953;28;20133;-70
2021/05/11 04:24:07;;;;;;;8.32;6.47;;;;;;;-139.48;100.00;61774.03;4972921;28;20042;-70
2021/05/11 04:26:51;;;;;;;8.75;5.68;;;;;;;-139.48;100.00;61774.03;4973086;28;20057;-70
2021/05/11 04:29:35;;;;;;;7.65;5.55;;;;;;;-139.48;100.00;61774.03;4972812;28;20049;-70
2021/05/11 04:32:19;;;;;;;6.22;4.88;;;;;;;-139.48;100.00;61774.03;4974108;28;20395;-70
2021/05/11 04:35:03;;;;;;;9.60;5.70;;;;;;;-139.48;100.00;61774.03;4959055;28;20110;-70
2021/05/11 04:37:47;;;;;;;7.22;5.38;;;;;;;-139.48;100.00;61774.03;4959539;28;20066;-71
2021/05/11 04:40:31;;;;;;;7.20;5.47;;;;;;;-139.48;100.00;61774.03;4973015;28;20128;-70
2021/05/11 04:43:16;;;;;;;8.27;5.72;;;;;;;-139.48;100.00;61774.03;4972621;28;20096;-70
2021/05/11 04:49:03;;;;;;;6.95;5.60;;;;;;;-139.48;100.00;61774.03;4973303;28;20046;-70
2021/05/11 04:51:46;;;;;;;10.02;6.03;;;;;;;-139.48;100.00;61774.03;4972718;28;20058;-71
2021/05/11 04:54:30;;;;;;;6.78;5.78;;;;;;;-139.48;100.00;61774.03;4972704;28;20511;-71
2021/05/11 04:57:14;;;;;;;7.80;6.43;;;;;;;-139.48;100.00;61774.03;4972720;28;20056;-71
2021/05/11 05:00:01;;;;;;;6.88;5.40;;;;;;;-139.48;100.00;61774.03;4972636;28;20078;-71
2021/05/11 05:02:47;;;;;;;7.55;5.78;;;;;;;-139.48;100.00;61774.03;4972490;28;20050;-71
2021/05/11 05:05:31;;;;;;;8.25;6.18;;;;;;;-139.48;100.00;61774.03;5001381;22;20081;-69
2021/05/11 05:08:15;;;;;;;7.05;5.70;;;;;;;-139.48;100.00;61774.03;4993213;28;20452;-70
2021/05/11 05:10:59;;;;;;;7.65;5.47;;;;;;;-139.48;100.00;61774.03;4992866;28;20461;-70
2021/05/11 05:13:43;;;;;;;8.40;5.13;;;;;;;-139.48;100.00;61774.03;4992097;28;20045;-70
2021/05/11 05:16:28;;;;;;;12.32;6.38;;;;;;;-139.48;100.00;61774.03;4992130;28;20108;-70
2021/05/11 05:19:12;;;;;;;7.93;5.70;;;;;;;-139.48;100.00;61774.03;4996087;28;20430;-70
2021/05/11 05:21:56;;;;;;;9.13;6.60;;;;;;;-139.48;100.00;61774.03;4996004;28;20053;-70
2021/05/11 05:24:52;;;;;;;8.65;6.18;;;;;;;-139.48;100.00;61774.03;4996609;28;20044;-69
2021/05/11 05:27:46;;;;;;;7.18;5.95;;;;;;;-139.48;100.00;61774.03;4995786;28;20053;-70
2021/05/11 05:30:30;;;;;;;7.47;6.47;;;;;;;-139.48;100.00;61774.03;4996400;28;20479;-68
2021/05/11 05:33:14;;;;;;;7.10;6.40;;;;;;;-139.48;100.00;61774.03;4981785;28;20097;-70
2021/05/11 05:35:58;;;;;;;7.47;6.68;;;;;;;-139.48;100.00;61774.03;4995311;28;20045;-69
2021/05/11 05:38:43;;;;;;;8.90;6.30;;;;;;;-139.48;100.00;61774.03;4996427;28;20077;-70
2021/05/11 05:41:26;;;;;;;8.93;5.93;;;;;;;-139.48;100.00;61774.03;4995602;28;20478;-69
2021/05/11 05:44:10;;;;;;;7.45;5.95;;;;;;;-139.48;100.00;61774.03;4996229;28;20423;-69
2021/05/11 05:46:54;;;;;;;8.32;6.30;;;;;;;-139.48;100.00;61774.03;4994988;28;20114;-69
2021/05/11 05:49:49;;;;;;;6.55;5.85;;;;;;;-139.48;100.00;61774.03;4981445;28;20065;-70
2021/05/11 05:52:35;;;;;;;7.93;6.18;;;;;;;-139.48;100.00;61774.03;4995209;28;20403;-70
2021/05/11 05:55:19;;;;;;;7.32;6.20;;;;;;;-139.48;100.00;61774.03;4995011;28;20162;-69
2021/05/11 05:58:03;;;;;;;7.85;6.50;;;;;;;-139.48;100.00;61774.03;4994832;28;20459;-70
2021/05/11 06:00:51;;;;;;;6.50;5.45;;;;;;;-139.48;100.00;61774.03;4995089;28;20057;-70
2021/05/11 06:06:21;;;;;;;6.43;5.68;;;;;;;-139.48;100.00;61774.03;4994762;28;20096;-70
2021/05/11 06:09:10;;;;;;;7.60;5.90;;;;;;;-139.48;100.00;61774.03;4995946;28;20049;-70
2021/05/11 06:12:11;;;;;;;6.57;5.90;;;;;;;-139.48;100.00;61774.03;4994660;28;20100;-70
2021/05/11 06:17:52;;;;;;;7.50;6.05;;;;;;;-139.48;100.00;61774.03;4995115;28;20064;-69
2021/05/11 06:20:36;;;;;;;6.07;5.15;;;;;;;-139.48;100.00;61774.03;4994413;28;20160;-70
2021/05/11 06:23:20;;;;;;;6.38;5.57;;;;;;;-139.48;100.00;61774.03;4994603;28;20100;-68
2021/05/11 06:26:04;;;;;;;5.68;5.07;;;;;;;-139.48;100.00;61774.03;4994314;28;20133;-70
2021/05/11 06:28:48;;;;;;;6.38;5.78;;;;;;;-139.48;100.00;61774.03;4995166;28;20141;-70
2021/05/11 06:31:32;;;;;;;6.07;5.03;;;;;;;-139.48;100.00;61774.03;4994433;28;20120;-70
2021/05/11 06:34:16;;;;;;;7.25;4.85;;;;;;;-139.48;100.00;61774.03;4980686;28;20053;-70
2021/05/11 06:37:00;;;;;;;8.40;5.50;;;;;;;-139.48;100.00;61774.03;4994328;28;20073;-70
2021/05/11 06:39:48;;;;;;;6.10;5.35;;;;;;;-139.48;100.00;61774.03;4980429;28;20054;-70
2021/05/11 06:42:32;;;;;;;6.20;5.60;;;;;;;-139.48;100.00;61774.03;4994011;28;20049;-70
2021/05/11 06:48:25;;;;;;;7.80;6.25;;;;;;;-139.48;100.00;61774.03;4994086;28;20045;-70
2021/05/11 06:53:53;;;;;;;9.88;6.30;;;;;;;-139.48;100.00;61774.03;4994370;28;20061;-69
2021/05/11 06:56:39;;;;;;;10.40;5.93;;;;;;;-139.48;100.00;61774.03;4993840;28;20104;-69
2021/05/11 06:59:24;;;;;;;6.10;5.50;;;;;;;-139.48;100.00;61774.03;4994179;28;20052;-70
2021/05/11 07:02:08;;;;;;;7.72;5.68;;;;;;;-139.48;100.00;61774.03;4993647;28;20422;-70
2021/05/11 07:04:53;;;;;;;6.90;5.28;;;;;;;-139.48;100.00;61774.03;4979960;28;20065;-70
2021/05/11 07:07:37;;;;;;;6.15;5.25;;;;;;;-139.48;100.00;61774.03;4993826;28;20187;-70
2021/05/11 07:10:27;;;;;;;5.68;5.18;;;;;;;-139.48;100.00;61774.03;4993741;28;20471;-70
2021/05/11 07:13:11;;;;;;;5.15;4.55;;;;;;;-139.48;100.00;61774.03;4993706;28;20121;-70
2021/05/11 07:15:55;;;;;;;4.90;4.40;;;;;;;-139.48;100.00;61774.03;4993368;28;20053;-69
2021/05/11 07:18:39;;;;;;;4.20;3.80;;;;;;;-139.48;100.00;61774.03;4994328;28;20157;-70
2021/05/11 07:21:23;;;;;;;5.22;3.97;;;;;;;-139.48;100.00;61774.03;4993462;28;20058;-70
2021/05/11 07:24:07;;;;;;;4.03;3.60;;;;;;;-139.48;100.00;61774.03;4993211;28;20053;-70
2021/05/11 07:29:54;;;;;;;5.18;3.75;;;;;;;-139.48;100.00;61774.03;4994448;28;20109;-70
2021/05/11 07:32:39;;;;;;;6.25;3.45;;;;;;;-139.48;100.00;61774.03;4993307;28;20044;-70
2021/05/11 07:35:23;;;;;;;5.30;4.30;;;;;;;-139.48;100.00;61774.03;4979713;28;20195;-70
2021/05/11 07:38:08;;;;;;;4.88;4.00;;;;;;;-139.48;100.00;61774.03;4993996;28;20522;-70
2021/05/11 07:40:52;;;;;;;6.85;4.00;;;;;;;-139.48;100.00;61774.03;4992312;28;20096;-70
2021/05/11 07:43:38;;;;;;;6.15;3.70;;;;;;;-139.48;100.00;61774.03;4992920;28;20081;-70
2021/05/11 07:46:45;;;;;;;6.03;3.28;;;;;;;-139.48;100.00;61774.03;4979809;28;20096;-70
2021/05/11 07:56:39;;;;;;;7.78;3.50;;;;;;;-139.48;100.00;61774.03;4993143;28;20132;-70
2021/05/11 08:04:35;;;;;;;5.43;2.85;;;;;;;-139.48;100.00;61774.03;4992770;28;20049;-70
2021/05/11 08:16:18;;;;;;;3.35;3.05;;;;;;;-139.48;100.00;61774.03;4992536;28;20100;-70
2021/05/11 08:28:10;;;;;;;2.47;2.28;;;;;;;-139.48;100.00;61774.03;4992336;28;20049;-71
2021/05/11 08:30:55;;;;;;;3.85;2.80;;;;;;;-139.48;100.00;61774.03;4992443;28;20100;-70
2021/05/11 08:33:39;;;;;;;2.45;2.25;;;;;;;-139.48;100.00;61774.03;4993467;28;20135;-70
2021/05/11 08:36:25;;;;;;;2.58;2.38;;;;;;;-139.48;100.00;61774.03;4992151;28;20053;-70
2021/05/11 08:39:09;;;;;;;2.80;2.33;;;;;;;-139.48;100.00;61774.03;4993386;28;20097;-70
2021/05/11 08:41:53;;;;;;;3.38;2.28;;;;;;;-139.48;100.00;61774.03;4978568;28;20565;-70
2021/05/11 08:44:37;;;;;;;2.20;2.00;;;;;;;-139.48;100.00;61774.03;4993335;28;20045;-71
2021/05/11 08:47:21;;;;;;;2.03;1.77;;;;;;;-139.48;100.00;61774.03;4978572;28;20053;-71
2021/05/11 08:50:05;;;;;;;2.30;2.00;;;;;;;-139.48;100.00;61774.03;4978523;28;20045;-71
2021/05/11 09:08:10;;;;;;;2.10;1.90;;;;;;;-139.48;100.00;61774.03;4997132;28;20447;-70
2021/05/11 09:26:31;;;;;;;2.20;2.00;;;;;;;-139.48;100.00;61774.03;4996730;28;20049;-70
2021/05/11 10:14:08;;;;;;;2.85;2.53;;;;;;;-139.48;100.00;61774.03;4985576;28;20499;-70
2021/05/11 10:38:53;;;;;;;5.00;2.50;;;;;;;-139.48;100.00;61774.03;4994736;28;20549;-70
2021/05/11 10:41:25;;;;;;;2.30;2.00;;;;;;;-139.48;100.00;61774.03;4994546;28;20049;-70
2021/05/11 10:47:02;;;;;;;2.63;2.42;;;;;;;-139.48;100.00;61774.03;4994190;28;20096;-70
2021/05/11 10:49:46;;;;;;;9.43;2.80;;;;;;;-139.48;100.00;61774.03;4966485;28;20061;-70
2021/05/11 10:52:41;;;;;;;6.18;2.85;;;;;;;-139.48;100.00;61774.03;4995139;28;20053;-70
2021/05/11 10:55:27;;;;;;;2.80;2.50;;;;;;;-139.48;100.00;61774.03;4981408;28;20530;-70
2021/05/11 10:58:11;;;;;;;3.13;1.95;;;;;;;-139.48;100.00;61774.03;4994057;28;20072;-70
2021/05/11 11:00:59;;;;;;;3.15;2.25;;;;;;;-139.48;100.00;61774.03;4994265;28;20112;-70
2021/05/11 11:04:15;;;;;;;4.22;2.58;;;;;;;-139.48;100.00;61774.03;4993904;28;20574;-70
2021/05/11 11:06:59;;;;;;;5.68;2.20;;;;;;;-139.48;100.00;61774.03;5016137;23;20056;-64
2021/05/11 11:09:57;;;;;;;3.70;1.75;;;;;;;-139.48;100.00;61774.03;4994806;28;20049;-64
2021/05/11 11:12:42;;;;;;;2.15;1.80;;;;;;;-139.48;100.00;61774.03;4979930;28;20057;-64
2021/05/11 11:15:26;;;;;;;2.70;1.88;;;;;;;-139.48;100.00;61774.03;4992536;28;20518;-64
2021/05/11 11:18:10;;;;;;;2.05;1.58;;;;;;;-139.48;100.00;61774.03;4993768;28;20053;-64
2021/05/11 11:21:20;;;;;;;1.40;1.30;;;;;;;-139.48;100.00;61774.03;4979772;28;20107;-64
2021/05/11 11:24:05;;;;;;;1.92;1.50;;;;;;;-139.48;100.00;61774.03;4982229;28;20169;-64
2021/05/11 11:26:52;;;;;;;6.43;1.80;;;;;;;-139.48;100.00;61774.03;4993095;28;20530;-64
2021/05/11 11:29:36;;;;;;;2.15;1.75;;;;;;;-139.48;100.00;61774.03;4979483;28;20057;-64
2021/05/11 11:32:21;;;;;;;2.22;1.40;;;;;;;-139.48;100.00;61774.03;4994167;28;20143;-64
2021/05/11 11:35:07;;;;;;;4.22;1.50;;;;;;;-139.48;100.00;61774.03;4993165;28;20100;-64
2021/05/11 11:37:51;;;;;;;1.33;1.20;;;;;;;-139.48;100.00;61774.03;4993145;28;20138;-63
2021/05/11 11:40:35;;;;;;;2.83;1.55;;;;;;;-139.48;100.00;61774.03;4979365;28;20403;-64
2021/05/11 11:43:27;;;;;;;1.58;1.10;;;;;;;-139.48;100.00;61774.03;4993101;28;20049;-64
2021/05/11 11:46:11;;;;;;;3.58;1.20;;;;;;;-139.48;100.00;61774.03;4992987;28;20557;-64
2021/05/11 11:49:03;;;;;;;2.65;1.40;;;;;;;-139.48;100.00;61774.03;4993050;28;20100;-64
2021/05/11 12:00:35;;;;;;;1.63;1.40;;;;;;;-139.48;100.00;61774.03;4993917;28;20081;-64
2021/05/11 12:03:22;;;;;;;1.55;1.25;;;;;;;-139.48;100.00;61774.03;4993578;28;20138;-64
2021/05/11 12:06:06;;;;;;;2.05;1.63;;;;;;;-139.48;100.00;61774.03;4992818;28;20133;-64
2021/05/11 12:08:51;;;;;;;2.25;1.33;;;;;;;-139.48;100.00;61774.03;4979040;28;20073;-64
2021/05/11 12:11:35;;;;;;;4.65;1.67;;;;;;;-139.48;100.00;61774.03;4992687;28;20613;-64
2021/05/11 12:14:18;;;;;;;1.65;1.40;;;;;;;-139.48;100.00;61774.03;4992974;28;20164;-64
2021/05/11 12:17:02;;;;;;;2.95;1.42;;;;;;;-139.48;100.00;61774.03;4992324;28;20127;-64
2021/05/11 12:19:46;;;;;;;2.35;1.23;;;;;;;-139.48;100.00;61774.03;4993624;28;20113;-64
2021/05/11 12:22:30;;;;;;;1.50;1.23;;;;;;;-139.48;100.00;61774.03;4993811;28;20080;-64
2021/05/11 12:25:24;;;;;;;5.43;1.50;;;;;;;-139.48;100.00;61774.03;4992402;28;20080;-64
2021/05/11 12:28:08;;;;;;;2.75;1.30;;;;;;;-139.48;100.00;61774.03;4993240;28;20049;-64
2021/05/11 12:30:52;;;;;;;1.67;1.50;;;;;;;-139.48;100.00;61774.03;4992427;28;20122;-64
2021/05/11 12:33:38;;;;;;;6.32;2.05;;;;;;;-139.48;100.00;61774.03;4978499;28;20458;-64
2021/05/11 12:36:25;;;;;;;2.95;1.70;;;;;;;-139.48;100.00;61774.03;4992344;28;20053;-64
2021/05/11 12:42:25;;;;;;;2.25;1.70;;;;;;;-139.48;100.00;61774.03;4981424;28;20116;-64
2021/05/11 12:45:14;;;;;;;3.55;1.95;;;;;;;-139.48;100.00;61774.03;4992136;28;20073;-64
2021/05/11 12:48:02;;;;;;;12.80;7.63;;;;;;;-139.48;100.00;61774.03;4992235;28;20053;-64
2021/05/11 12:50:46;;;;;;;8.50;7.60;;;;;;;-139.48;100.00;61774.03;4992220;28;20072;-64
2021/05/11 12:53:38;;;;;;;3.55;2.75;;;;;;;-139.48;100.00;61774.03;4992145;28;20403;-64
2021/05/11 13:00:32;;;;;;;3.53;1.70;;;;;;;-139.48;100.00;61774.03;4993198;28;20050;-64
2021/05/11 13:26:37;;;;;;;4.38;2.00;;;;;;;-139.48;100.00;61774.03;4992874;28;20422;-64
2021/05/11 13:29:46;;;;;;;2.42;2.00;;;;;;;-139.48;100.00;61774.03;4979209;28;20134;-64
2021/05/11 13:32:51;;;;;;;2.75;1.92;;;;;;;-139.48;100.00;61774.03;4992941;28;20045;-63
2021/05/11 13:35:35;;;;;;;3.77;2.23;;;;;;;-139.48;100.00;61774.03;4993210;28;20048;-64
2021/05/11 13:38:20;;;;;;;5.18;2.42;;;;;;;-139.48;100.00;61774.03;4993475;28;20100;-64
2021/05/11 13:41:04;;;;;;;2.97;2.28;;;;;;;-139.48;100.00;61774.03;4996746;28;20108;-64
2021/05/11 13:43:49;;;;;;;4.53;2.47;;;;;;;-139.48;100.00;61774.03;4996212;28;20049;-63
2021/05/11 13:46:34;;;;;;;3.58;1.90;;;;;;;-139.48;100.00;61774.03;4995175;28;20065;-64
2021/05/11 13:49:19;;;;;;;3.47;2.70;;;;;;;-139.48;100.00;61774.03;4995153;28;20458;-64
2021/05/11 13:52:03;;;;;;;2.38;2.00;;;;;;;-139.48;100.00;61774.03;4996278;28;20053;-63
2021/05/11 13:54:53;;;;;;;3.28;1.88;;;;;;;-139.48;100.00;61774.03;4995143;28;20096;-64
2021/05/11 14:03:42;;;;;;;4.95;2.40;;;;;;;-139.48;100.00;61774.03;4995998;28;20220;-63
2021/05/11 14:06:27;;;;;;;8.10;2.70;;;;;;;-139.48;100.00;61774.03;4995875;28;20159;-64
2021/05/11 14:09:11;;;;;;;4.47;2.70;;;;;;;-139.48;100.00;61774.03;4995214;28;20135;-64
2021/05/11 14:11:55;;;;;;;5.75;2.90;;;;;;;-139.48;100.00;61774.03;4995858;28;20100;-64
2021/05/11 14:14:39;;;;;;;6.32;3.35;;;;;;;-139.48;100.00;61774.03;4994837;28;20046;-64
2021/05/11 14:17:23;;;;;;;4.63;3.28;;;;;;;-139.48;100.00;61774.03;4995660;28;20049;-63
2021/05/11 14:20:07;;;;;;;3.65;2.85;;;;;;;-139.48;100.00;61774.03;4995032;28;20545;-64
2021/05/11 14:22:51;;;;;;;4.95;2.80;;;;;;;-139.48;100.00;61774.03;4994437;28;20053;-64
2021/05/11 14:25:35;;;;;;;4.20;2.95;;;;;;;-139.48;100.00;61774.03;4995428;28;20463;-64
2021/05/11 14:28:19;;;;;;;4.53;2.42;;;;;;;-139.48;100.00;61774.03;4980564;28;20046;-63
2021/05/11 14:31:03;;;;;;;3.05;2.42;;;;;;;-139.48;100.00;61774.03;4994499;28;20049;-64
2021/05/11 14:33:47;;;;;;;4.68;2.75;;;;;;;-139.48;100.00;61774.03;4994568;28;20419;-64
2021/05/11 14:36:31;;;;;;;3.03;2.15;;;;;;;-139.48;100.00;61774.03;4995405;28;20467;-64
2021/05/11 14:39:15;;;;;;;3.40;2.40;;;;;;;-139.48;100.00;61774.03;4994401;28;20415;-64
2021/05/11 14:41:59;;;;;;;4.03;2.30;;;;;;;-139.48;100.00;61774.03;4995688;28;20049;-64
2021/05/11 14:44:42;;;;;;;3.08;2.40;;;;;;;-139.48;100.00;61774.03;4994257;28;20153;-64
2021/05/11 14:47:28;;;;;;;2.40;2.20;;;;;;;-139.48;100.00;61774.03;4994452;28;20049;-64
2021/05/11 14:50:16;;;;;;;8.98;2.05;;;;;;;-139.48;100.00;61774.03;4995130;28;20053;-64
2021/05/11 14:53:01;;;;;;;4.30;2.00;;;;;;;-139.48;100.00;61774.03;4994362;28;20109;-64
2021/05/11 14:55:45;;;;;;;2.13;1.67;;;;;;;-139.48;100.00;61774.03;4994875;28;20112;-64
2021/05/11 14:58:28;;;;;;;2.88;1.70;;;;;;;-139.48;100.00;61774.03;4993712;28;20053;-64
2021/05/11 15:01:12;;;;;;;2.65;2.17;;;;;;;-139.48;100.00;61774.03;4994775;28;20053;-64
2021/05/11 15:03:56;;;;;;;4.13;2.08;;;;;;;-139.48;100.00;61774.03;4994009;28;20100;-64
2021/05/11 15:06:40;;;;;;;2.22;1.90;;;;;;;-139.48;100.00;61774.03;4994549;28;20089;-64
2021/05/11 15:09:25;;;;;;;3.10;2.00;;;;;;;-139.48;100.00;61774.03;4994863;28;20133;-64
2021/05/11 15:12:10;;;;;;;1.73;1.55;;;;;;;-139.48;100.00;61774.03;4993854;28;20487;-64
2021/05/11 15:14:55;;;;;;;1.58;1.40;;;;;;;-139.48;100.00;61774.03;4994797;28;20140;-64
2021/05/11 15:20:22;;;;;;;2.28;1.85;;;;;;;-139.48;100.00;61774.03;4994651;28;20053;-64
2021/05/11 15:23:07;;;;;;;4.72;1.90;;;;;;;-139.48;100.00;61774.03;4979611;28;20471;-64
2021/05/11 15:25:51;;;;;;;2.95;1.98;;;;;;;-139.48;100.00;61774.03;4993769;28;20101;-64
2021/05/11 15:28:36;;;;;;;5.25;1.73;;;;;;;-139.48;100.00;61774.03;4994524;28;20545;-63
2021/05/11 15:31:20;;;;;;;1.92;1.65;;;;;;;-139.48;100.00;61774.03;4993401;28;20061;-64
2021/05/11 15:34:04;;;;;;;4.22;1.35;;;;;;;-139.48;100.00;61774.03;4993321;28;20053;-64
2021/05/11 15:36:48;;;;;;;3.08;1.27;;;;;;;-139.48;100.00;61774.03;4994063;28;20049;-64
2021/05/11 15:39:31;;;;;;;2.33;1.52;;;;;;;-139.48;100.00;61774.03;4993103;28;20109;-64
2021/05/11 15:42:15;;;;;;;2.80;1.40;;;;;;;-139.48;100.00;61774.03;4993147;28;20104;-64
2021/05/11 15:44:59;;;;;;;1.98;1.48;;;;;;;-139.48;100.00;61774.03;4993917;28;20404;-64
2021/05/11 15:47:56;;;;;;;1.92;1.35;;;;;;;-139.48;100.00;61774.03;4992827;28;20053;-64
2021/05/11 15:50:41;;;;;;;2.22;1.38;;;;;;;-139.48;100.00;61774.03;4993866;28;20053;-64
2021/05/11 15:53:25;;;;;;;1.92;1.50;;;;;;;-139.48;100.00;61774.03;4979116;28;20130;-64
2021/05/11 15:56:09;;;;;;;4.20;1.48;;;;;;;-139.48;100.00;61774.03;4993931;28;20053;-64
2021/05/11 15:58:53;;;;;;;2.00;1.80;;;;;;;-139.48;100.00;61774.03;4993853;28;20137;-64
2021/05/11 16:01:37;;;;;;;2.20;2.00;;;;;;;-139.48;100.00;61774.03;4978908;28;20057;-64
2021/05/11 16:04:21;;;;;;;3.17;2.00;;;;;;;-139.48;100.00;61774.03;4992777;28;20061;-64
2021/05/11 16:07:05;;;;;;;3.53;2.55;;;;;;;-139.48;100.00;61774.03;4993367;28;20049;-64
2021/05/11 16:09:49;;;;;;;4.28;2.72;;;;;;;-139.48;100.00;61774.03;4993011;28;20128;-64
2021/05/11 16:12:33;;;;;;;3.67;2.92;;;;;;;-139.48;100.00;61774.03;4992287;28;20577;-64
2021/05/11 16:15:21;;;;;;;4.20;2.80;;;;;;;-139.48;100.00;61774.03;4992414;28;20049;-64
2021/05/11 16:18:05;;;;;;;3.67;2.80;;;;;;;-139.48;100.00;61774.03;4993496;28;20053;-64
2021/05/11 16:20:49;;;;;;;3.95;2.88;;;;;;;-139.48;100.00;61774.03;4993276;28;20096;-64
2021/05/11 16:23:33;;;;;;;5.90;2.90;;;;;;;-139.48;100.00;61774.03;4992189;28;20459;-64
2021/05/11 16:26:17;;;;;;;6.00;3.25;;;;;;;-139.48;100.00;61774.03;4992314;28;20391;-64
2021/05/11 16:29:03;;;;;;;8.45;3.53;;;;;;;-139.48;100.00;61774.03;4992459;28;20136;-63
2021/05/11 16:31:48;;;;;;;6.32;3.03;;;;;;;-139.48;100.00;61774.03;4979113;28;20101;-64
2021/05/11 16:34:32;;;;;;;4.68;3.15;;;;;;;-139.48;100.00;61774.03;4993486;28;20163;-63
2021/05/11 16:37:16;;;;;;;4.07;3.17;;;;;;;-139.48;100.00;61774.03;4992026;28;20518;-63
2021/05/11 16:40:00;;;;;;;6.93;3.20;;;;;;;-139.48;100.00;61774.03;4992302;28;20078;-63
2021/05/11 16:42:44;;;;;;;5.57;3.80;;;;;;;-139.48;100.00;61774.03;4991990;28;20419;-64
2021/05/11 16:45:30;;;;;;;3.97;3.08;;;;;;;-139.48;100.00;61774.03;4992306;28;20045;-64
2021/05/11 16:48:16;;;;;;;5.75;3.53;;;;;;;-139.48;100.00;61774.03;4991982;28;20510;-63
2021/05/11 16:51:01;;;;;;;6.05;4.30;;;;;;;-139.48;100.00;61774.03;4993087;28;20145;-64